createdAt,value
2023-09-03T00:00:46.237Z,21.00
2023-09-03T00:03:13.783Z,19.00
2023-09-03T00:05:40.370Z,20.00
2023-09-03T00:08:09.756Z,21.00
2023-09-03T00:10:36.848Z,17.50
2023-09-03T00:13:03.633Z,16.00
2023-09-03T00:15:30.160Z,20.00
2023-09-03T00:17:56.721Z,21.00
2023-09-03T00:20:24.173Z,19.50
2023-09-03T00:22:50.719Z,19.00
2023-09-03T00:25:17.265Z,16.00
2023-09-03T00:27:43.833Z,20.50
2023-09-03T00:30:10.364Z,18.00
2023-09-03T00:32:37.905Z,19.00
2023-09-03T00:35:04.453Z,18.00
2023-09-03T00:37:31.028Z,18.50
2023-09-03T00:39:57.555Z,18.50
2023-09-03T00:42:24.096Z,18.50
2023-09-03T00:44:51.582Z,22.50
2023-09-03T00:47:19.189Z,20.50
2023-09-03T00:49:45.849Z,20.00
2023-09-03T00:52:12.391Z,21.00
2023-09-03T00:57:22.917Z,19.00
2023-09-03T00:59:50.365Z,19.50
2023-09-03T01:02:16.875Z,17.00
2023-09-03T01:04:43.420Z,18.00
2023-09-03T01:07:10.865Z,17.00
2023-09-03T01:12:21.589Z,19.00
2023-09-03T01:14:49.026Z,19.00
2023-09-03T01:17:16.497Z,18.00
2023-09-03T01:19:44.001Z,18.00
2023-09-03T01:22:11.473Z,21.50
2023-09-03T01:27:22.246Z,20.00
2023-09-03T01:29:48.790Z,19.00
2023-09-03T01:32:16.241Z,20.50
2023-09-03T01:34:43.713Z,21.00
2023-09-03T01:37:10.289Z,21.00
2023-09-03T01:42:21.894Z,19.50
2023-09-03T01:44:49.378Z,20.00
2023-09-03T01:47:16.891Z,13.67
2023-09-03T01:49:44.356Z,22.50
2023-09-03T01:52:11.825Z,19.50
2023-09-03T01:57:22.651Z,22.00
2023-09-03T01:59:49.190Z,16.00
2023-09-03T02:02:16.684Z,18.00
2023-09-03T02:04:44.255Z,19.67
2023-09-03T02:07:11.750Z,20.00
2023-09-03T02:12:23.259Z,20.00
2023-09-03T02:14:50.721Z,21.50
2023-09-03T02:17:18.175Z,19.50
2023-09-03T02:19:45.618Z,19.50
2023-09-03T02:22:13.052Z,21.00
2023-09-03T02:27:23.530Z,19.00
2023-09-03T02:29:50.075Z,20.50
2023-09-03T02:32:16.620Z,20.00
2023-09-03T02:34:43.148Z,20.00
2023-09-03T02:37:10.645Z,20.00
2023-09-03T02:42:21.172Z,21.00
2023-09-03T02:44:47.714Z,19.50
2023-09-03T02:47:16.873Z,20.00
2023-09-03T02:49:45.480Z,21.00
2023-09-03T02:52:12.924Z,21.00
2023-09-03T02:57:23.313Z,20.00
2023-09-03T02:59:50.768Z,19.00
2023-09-03T03:02:18.228Z,20.00
2023-09-03T03:04:44.777Z,20.00
2023-09-03T03:07:12.254Z,20.00
2023-09-03T03:12:22.662Z,18.00
2023-09-03T03:14:49.201Z,19.00
2023-09-03T03:17:15.742Z,20.00
2023-09-03T03:19:42.264Z,18.00
2023-09-03T03:22:09.752Z,20.00
2023-09-03T03:27:21.970Z,17.33
2023-09-03T03:29:48.496Z,15.00
2023-09-03T03:32:18.360Z,19.00
2023-09-03T03:34:46.515Z,19.00
2023-09-03T03:37:13.034Z,20.00
2023-09-03T03:42:24.295Z,20.00
2023-09-03T03:44:50.852Z,19.00
2023-09-03T03:47:18.374Z,20.00
2023-09-03T03:49:44.930Z,20.00
2023-09-03T03:52:11.510Z,19.50
2023-09-03T03:54:38.973Z,18.00
2023-09-03T03:57:06.478Z,19.00
2023-09-03T03:59:33.011Z,20.00
2023-09-03T04:01:59.569Z,21.00
2023-09-03T04:04:26.162Z,20.00
2023-09-03T04:06:52.702Z,21.00
2023-09-03T04:09:19.250Z,19.50
2023-09-03T04:11:46.760Z,20.00
2023-09-03T04:14:14.232Z,17.50
2023-09-03T04:16:40.847Z,18.50
2023-09-03T04:19:07.503Z,18.00
2023-09-03T04:21:34.042Z,20.00
2023-09-03T04:24:00.666Z,17.00
2023-09-03T04:26:28.377Z,17.00
2023-09-03T04:28:58.590Z,15.33
2023-09-03T04:31:25.242Z,19.00
2023-09-03T04:33:51.882Z,20.00
2023-09-03T04:36:19.398Z,18.50
2023-09-03T04:38:45.940Z,19.00
2023-09-03T04:41:13.505Z,18.33
2023-09-03T04:43:41.053Z,20.00
2023-09-03T04:46:07.639Z,21.00
2023-09-03T04:48:34.177Z,18.00
2023-09-03T04:51:00.719Z,19.00
2023-09-03T04:53:28.209Z,20.50
2023-09-03T04:55:55.691Z,20.00
2023-09-03T04:58:23.487Z,20.00
2023-09-03T05:00:51.186Z,19.50
2023-09-03T05:03:18.731Z,19.00
2023-09-03T05:05:46.255Z,18.00
2023-09-03T05:08:12.798Z,18.00
2023-09-03T05:10:39.361Z,19.50
2023-09-03T05:13:06.736Z,22.00
2023-09-03T05:15:35.118Z,23.00
2023-09-03T05:18:02.037Z,23.00
2023-09-03T05:20:28.646Z,20.00
2023-09-03T05:22:55.178Z,21.00
2023-09-03T05:25:21.730Z,20.00
2023-09-03T05:30:32.294Z,23.00
2023-09-03T05:32:59.793Z,22.00
2023-09-03T05:35:26.383Z,21.00
2023-09-03T05:37:52.962Z,27.50
2023-09-03T05:40:20.448Z,24.00
2023-09-03T05:45:31.801Z,18.00
2023-09-03T05:47:59.309Z,22.50
2023-09-03T05:50:26.824Z,20.00
2023-09-03T05:52:53.353Z,20.00
2023-09-03T05:55:20.825Z,20.50
2023-09-03T06:00:32.171Z,21.00
2023-09-03T06:02:58.797Z,20.00
2023-09-03T06:05:26.295Z,17.00
2023-09-03T06:07:53.772Z,18.00
2023-09-03T06:10:21.250Z,14.00
2023-09-03T06:15:34.032Z,14.00
2023-09-03T06:18:01.897Z,13.67
2023-09-03T06:20:29.652Z,14.33
2023-09-03T06:22:57.102Z,13.33
2023-09-03T06:25:23.609Z,15.00
2023-09-03T06:30:36.057Z,18.00
2023-09-03T06:33:02.673Z,16.00
2023-09-03T06:35:29.384Z,14.00
2023-09-03T06:37:55.902Z,12.50
2023-09-03T06:40:34.134Z,13.14
2023-09-03T06:43:00.645Z,15.00
2023-09-03T06:45:28.111Z,16.33
2023-09-03T06:47:55.672Z,17.00
2023-09-03T06:50:22.224Z,17.00
2023-09-03T06:52:48.834Z,19.50
2023-09-03T06:55:19.203Z,24.50
2023-09-03T06:57:46.991Z,20.50
2023-09-03T07:00:13.509Z,15.50
2023-09-03T07:02:40.097Z,18.00
2023-09-03T07:05:06.647Z,21.00
2023-09-03T07:07:34.107Z,16.67
2023-09-03T07:10:00.654Z,14.00
2023-09-03T07:12:27.980Z,12.67
2023-09-03T07:14:54.520Z,19.00
2023-09-03T07:17:21.042Z,15.00
2023-09-03T07:19:47.563Z,13.50
2023-09-03T07:22:14.924Z,10.33
2023-09-03T07:24:41.490Z,19.50
2023-09-03T07:27:08.132Z,18.50
2023-09-03T07:29:34.716Z,11.50
2023-09-03T07:32:02.128Z,12.67
2023-09-03T07:34:30.846Z,7.00
2023-09-03T07:36:57.449Z,11.00
2023-09-03T07:39:25.836Z,11.00
2023-09-03T07:41:52.386Z,8.00
2023-09-03T07:44:18.900Z,9.00
2023-09-03T07:46:47.251Z,10.00
2023-09-03T07:49:13.724Z,10.00
2023-09-03T07:51:40.282Z,8.00
2023-09-03T07:54:06.847Z,7.00
2023-09-03T07:56:35.212Z,7.80
2023-09-03T07:59:01.749Z,7.00
2023-09-03T08:01:28.304Z,7.00
2023-09-03T08:03:55.642Z,7.25
2023-09-03T08:06:22.134Z,6.50
2023-09-03T08:08:51.425Z,7.83
2023-09-03T08:11:17.993Z,7.00
2023-09-03T08:13:46.304Z,7.40
2023-09-03T08:16:12.761Z,7.00
2023-09-03T08:18:39.222Z,6.67
2023-09-03T08:21:05.695Z,7.00
2023-09-03T08:23:33.072Z,7.00
2023-09-03T08:26:02.025Z,7.00
2023-09-03T08:28:30.985Z,6.25
2023-09-03T08:30:59.254Z,7.00
2023-09-03T08:33:28.478Z,7.50
2023-09-03T08:35:54.929Z,6.00
2023-09-03T08:38:21.366Z,7.00
2023-09-03T08:40:47.808Z,5.00
2023-09-03T08:43:15.105Z,6.50
2023-09-03T08:45:44.341Z,5.17
2023-09-03T08:48:13.466Z,9.00
2023-09-03T08:50:42.702Z,7.17
2023-09-03T08:53:09.209Z,7.00
2023-09-03T08:55:36.568Z,8.67
2023-09-03T08:58:03.884Z,6.00
2023-09-03T09:00:30.370Z,6.50
2023-09-03T09:02:56.994Z,7.00
2023-09-03T09:05:24.313Z,6.50
2023-09-03T09:07:51.669Z,6.00
2023-09-03T09:10:18.175Z,7.00
2023-09-03T09:12:44.601Z,6.00
2023-09-03T09:15:11.917Z,7.00
2023-09-03T09:17:38.523Z,8.00
2023-09-03T09:20:08.537Z,8.00
2023-09-03T09:22:35.068Z,12.00
2023-09-03T09:25:02.345Z,9.00
2023-09-03T09:27:28.806Z,7.00
2023-09-03T09:29:55.284Z,6.00
2023-09-03T09:32:21.713Z,5.33
2023-09-03T09:34:48.139Z,5.00
2023-09-03T09:37:15.469Z,5.00
2023-09-03T09:39:41.881Z,6.00
2023-09-03T09:42:08.326Z,5.00
2023-09-03T09:44:34.757Z,4.67
2023-09-03T09:47:01.272Z,9.00
2023-09-03T09:49:27.745Z,7.00
2023-09-03T09:51:54.204Z,6.33
2023-09-03T09:54:21.485Z,6.00
2023-09-03T09:56:50.254Z,7.00
2023-09-03T09:59:17.185Z,8.50
2023-09-03T10:01:43.624Z,6.00
2023-09-03T10:04:10.093Z,5.00
2023-09-03T10:06:36.589Z,7.00
2023-09-03T10:09:03.053Z,5.00
2023-09-03T10:11:30.317Z,6.00
2023-09-03T10:13:56.769Z,6.00
2023-09-03T10:16:23.261Z,5.00
2023-09-03T10:18:49.777Z,4.00
2023-09-03T10:21:16.239Z,3.33
2023-09-03T10:23:42.658Z,4.00
2023-09-03T10:26:09.116Z,3.33
2023-09-03T10:28:35.537Z,3.67
2023-09-03T10:31:01.982Z,3.00
2023-09-03T10:33:28.419Z,3.00
2023-09-03T10:35:54.846Z,2.00
2023-09-03T10:38:21.258Z,4.00
2023-09-03T10:40:47.728Z,4.00
2023-09-03T10:43:14.176Z,4.00
2023-09-03T10:45:40.619Z,3.67
2023-09-03T10:48:07.155Z,4.00
2023-09-03T10:50:33.622Z,4.00
2023-09-03T10:53:00.045Z,4.00
2023-09-03T10:55:26.444Z,3.67
2023-09-03T10:57:52.896Z,3.33
2023-09-03T11:00:19.384Z,3.00
2023-09-03T11:02:49.911Z,2.67
2023-09-03T11:05:17.555Z,2.67
2023-09-03T11:07:43.951Z,2.00
2023-09-03T11:10:11.326Z,3.00
2023-09-03T11:12:37.769Z,3.00
2023-09-03T11:15:04.159Z,2.67
2023-09-03T11:17:30.610Z,2.00
2023-09-03T11:19:57.045Z,3.00
2023-09-03T11:22:23.432Z,2.00
2023-09-03T11:24:49.898Z,3.00
2023-09-03T11:27:16.305Z,3.00
2023-09-03T11:29:42.745Z,3.67
2023-09-03T11:32:09.175Z,3.00
2023-09-03T11:34:35.629Z,3.00
2023-09-03T11:37:02.050Z,3.00
2023-09-03T11:39:28.500Z,2.00
2023-09-03T11:41:54.921Z,3.00
2023-09-03T11:44:21.353Z,3.67
2023-09-03T11:46:47.800Z,3.00
2023-09-03T11:49:15.115Z,3.50
2023-09-03T11:51:41.549Z,3.00
2023-09-03T11:54:07.969Z,3.67
2023-09-03T11:56:34.362Z,4.00
2023-09-03T11:59:00.805Z,4.00
2023-09-03T12:01:27.310Z,3.33
2023-09-03T12:03:53.789Z,3.33
2023-09-03T12:06:21.146Z,3.75
2023-09-03T12:08:47.576Z,4.00
2023-09-03T12:11:14.968Z,4.25
2023-09-03T12:13:41.409Z,3.00
2023-09-03T12:16:07.875Z,3.00
2023-09-03T12:18:34.323Z,4.00
2023-09-03T12:21:00.802Z,3.00
2023-09-03T12:23:27.250Z,3.33
2023-09-03T12:25:53.694Z,3.00
2023-09-03T12:28:20.100Z,3.33
2023-09-03T12:30:46.528Z,3.00
2023-09-03T12:33:13.013Z,2.67
2023-09-03T12:35:39.440Z,2.00
2023-09-03T12:38:05.899Z,3.00
2023-09-03T12:40:32.335Z,3.00
2023-09-03T12:42:58.805Z,4.00
2023-09-03T12:45:25.244Z,2.67
2023-09-03T12:47:51.688Z,3.33
2023-09-03T12:50:18.999Z,3.00
2023-09-03T12:52:45.417Z,3.00
2023-09-03T12:55:12.755Z,3.25
2023-09-03T12:57:39.214Z,3.00
2023-09-03T13:00:05.755Z,2.00
2023-09-03T13:02:32.362Z,3.00
2023-09-03T13:04:58.858Z,2.00
2023-09-03T13:07:25.345Z,3.00
2023-09-03T13:09:51.750Z,4.00
2023-09-03T13:12:19.050Z,3.00
2023-09-03T13:14:45.468Z,3.00
2023-09-03T13:17:12.740Z,3.00
2023-09-03T13:19:39.176Z,3.00
2023-09-03T13:22:05.582Z,2.00
2023-09-03T13:24:32.054Z,3.00
2023-09-03T13:26:58.460Z,3.00
2023-09-03T13:29:24.935Z,3.00
2023-09-03T13:31:51.435Z,1.33
2023-09-03T13:34:17.902Z,3.00
2023-09-03T13:36:44.304Z,2.00
2023-09-03T13:39:10.707Z,1.67
2023-09-03T13:41:37.145Z,1.00
2023-09-03T13:44:03.637Z,3.33
2023-09-03T13:46:30.103Z,2.00
2023-09-03T13:48:56.502Z,2.00
2023-09-03T13:51:22.939Z,2.00
2023-09-03T13:53:49.376Z,2.00
2023-09-03T13:56:15.854Z,2.00
2023-09-03T13:58:42.307Z,1.67
2023-09-03T14:01:08.854Z,2.33
2023-09-03T14:03:35.385Z,2.00
2023-09-03T14:06:01.879Z,3.00
2023-09-03T14:08:28.308Z,2.67
2023-09-03T14:10:54.758Z,3.00
2023-09-03T14:13:23.668Z,3.00
2023-09-03T14:15:50.329Z,3.33
2023-09-03T14:18:16.911Z,3.00
2023-09-03T14:20:43.334Z,4.00
2023-09-03T14:23:09.767Z,4.00
2023-09-03T14:25:36.521Z,3.00
2023-09-03T14:28:03.000Z,3.00
2023-09-03T14:30:29.473Z,5.00
2023-09-03T14:32:55.943Z,2.00
2023-09-03T14:35:22.378Z,4.00
2023-09-03T14:37:48.877Z,4.00
2023-09-03T14:40:17.916Z,2.33
2023-09-03T14:42:44.363Z,4.00
2023-09-03T14:45:10.784Z,3.00
2023-09-03T14:47:37.244Z,2.67
2023-09-03T14:50:03.693Z,2.33
2023-09-03T14:52:30.193Z,3.00
2023-09-03T14:54:56.636Z,3.00
2023-09-03T14:57:23.065Z,3.00
2023-09-03T14:59:49.484Z,3.00
2023-09-03T15:02:16.821Z,2.00
2023-09-03T15:04:43.254Z,3.00
2023-09-03T15:07:10.569Z,2.00
2023-09-03T15:09:36.999Z,2.67
2023-09-03T15:12:03.430Z,2.67
2023-09-03T15:14:29.827Z,2.33
2023-09-03T15:16:56.205Z,2.00
2023-09-03T15:19:23.939Z,0.00
2023-09-03T15:21:50.422Z,2.00
2023-09-03T15:24:16.976Z,2.00
2023-09-03T15:26:43.504Z,2.00
2023-09-03T15:29:10.803Z,2.00
2023-09-03T15:31:37.314Z,2.00
2023-09-03T15:34:03.753Z,2.00
2023-09-03T15:36:30.160Z,2.00
2023-09-03T15:38:56.634Z,2.00
2023-09-03T15:41:23.072Z,2.00
2023-09-03T15:43:49.519Z,3.00
2023-09-03T15:46:16.106Z,3.00
2023-09-03T15:48:42.565Z,2.33
2023-09-03T15:51:08.996Z,2.00
2023-09-03T15:53:35.412Z,3.00
2023-09-03T15:56:01.834Z,2.00
2023-09-03T15:58:28.243Z,2.00
2023-09-03T16:00:54.696Z,2.00
2023-09-03T16:03:21.343Z,2.00
2023-09-03T16:05:47.822Z,3.00
2023-09-03T16:08:14.263Z,2.00
2023-09-03T16:10:40.665Z,2.00
2023-09-03T16:13:07.083Z,1.00
2023-09-03T16:15:33.555Z,2.00
2023-09-03T16:18:00.074Z,3.00
2023-09-03T16:20:26.578Z,2.00
2023-09-03T16:22:53.001Z,1.67
2023-09-03T16:25:19.443Z,2.00
2023-09-03T16:27:45.866Z,2.00
2023-09-03T16:30:13.165Z,2.00
2023-09-03T16:32:39.715Z,2.00
2023-09-03T16:35:06.241Z,3.00
2023-09-03T16:37:32.712Z,2.00
2023-09-03T16:39:59.119Z,2.67
2023-09-03T16:42:25.577Z,2.67
2023-09-03T16:44:51.998Z,2.00
2023-09-03T16:47:18.452Z,3.00
2023-09-03T16:49:44.879Z,2.00
2023-09-03T16:52:11.301Z,2.00
2023-09-03T16:54:38.025Z,3.00
2023-09-03T16:57:04.541Z,2.33
2023-09-03T16:59:30.994Z,3.00
2023-09-03T17:01:57.526Z,3.00
2023-09-03T17:04:23.993Z,4.00
2023-09-03T17:06:50.404Z,2.00
2023-09-03T17:09:16.828Z,1.00
2023-09-03T17:11:43.282Z,3.00
2023-09-03T17:14:09.779Z,2.33
2023-09-03T17:16:36.244Z,2.00
2023-09-03T17:19:02.709Z,2.00
2023-09-03T17:21:29.154Z,3.00
2023-09-03T17:23:55.600Z,2.00
2023-09-03T17:26:26.716Z,3.00
2023-09-03T17:28:53.516Z,3.00
2023-09-03T17:31:20.976Z,2.75
2023-09-03T17:33:47.439Z,2.00
2023-09-03T17:36:14.773Z,2.50
2023-09-03T17:38:41.235Z,2.00
2023-09-03T17:41:07.638Z,3.00
2023-09-03T17:43:34.048Z,2.00
2023-09-03T17:46:00.490Z,2.00
2023-09-03T17:48:27.199Z,2.67
2023-09-03T17:50:53.811Z,3.67
2023-09-03T17:53:21.105Z,2.00
2023-09-03T17:55:47.548Z,3.00
2023-09-03T17:58:13.985Z,2.33
2023-09-03T18:00:40.397Z,3.00
2023-09-03T18:03:06.999Z,3.00
2023-09-03T18:05:33.522Z,4.00
2023-09-03T18:07:59.941Z,4.00
2023-09-03T18:10:26.407Z,3.67
2023-09-03T18:12:52.881Z,3.00
2023-09-03T18:15:20.020Z,2.00
2023-09-03T18:17:46.634Z,4.00
2023-09-03T18:20:13.120Z,4.33
2023-09-03T18:22:39.546Z,3.00
2023-09-03T18:25:05.984Z,4.00
2023-09-03T18:27:33.301Z,12.00
2023-09-03T18:29:59.749Z,5.00
2023-09-03T18:32:27.597Z,10.75
2023-09-03T18:34:54.946Z,8.67
2023-09-03T18:37:21.536Z,9.00
2023-09-03T18:39:47.965Z,6.67
2023-09-03T18:42:14.497Z,12.00
2023-09-03T18:44:41.810Z,11.33
2023-09-03T18:47:10.273Z,9.60
2023-09-03T18:49:37.770Z,11.67
2023-09-03T18:52:04.272Z,10.00
2023-09-03T18:54:31.587Z,8.00
2023-09-03T18:56:58.023Z,6.00
2023-09-03T18:59:24.489Z,4.00
2023-09-03T19:01:51.123Z,3.00
2023-09-03T19:04:17.576Z,3.67
2023-09-03T19:06:44.026Z,3.33
2023-09-03T19:09:10.468Z,3.00
2023-09-03T19:11:36.885Z,3.00
2023-09-03T19:14:03.331Z,2.67
2023-09-03T19:16:30.021Z,3.00
2023-09-03T19:18:56.616Z,3.00
2023-09-03T19:21:23.013Z,2.33
2023-09-03T19:23:49.437Z,2.00
2023-09-03T19:26:15.877Z,2.67
2023-09-03T19:28:42.370Z,3.00
2023-09-03T19:31:08.848Z,3.33
2023-09-03T19:33:35.327Z,2.33
2023-09-03T19:36:01.739Z,2.33
2023-09-03T19:38:28.247Z,3.00
2023-09-03T19:40:54.722Z,3.33
2023-09-03T19:43:24.765Z,3.00
2023-09-03T19:45:51.487Z,3.00
2023-09-03T19:48:18.863Z,2.50
2023-09-03T19:50:45.286Z,2.67
2023-09-03T19:53:12.602Z,3.00
2023-09-03T19:55:39.007Z,2.67
2023-09-03T19:58:05.480Z,2.67
2023-09-03T20:00:31.891Z,3.00
2023-09-03T20:02:58.453Z,3.67
2023-09-03T20:05:24.923Z,4.33
2023-09-03T20:07:51.373Z,4.00
2023-09-03T20:10:17.836Z,4.00
2023-09-03T20:12:44.363Z,3.00
2023-09-03T20:15:10.869Z,4.00
2023-09-03T20:17:37.310Z,4.00
2023-09-03T20:20:03.752Z,2.00
2023-09-03T20:22:30.180Z,2.67
2023-09-03T20:24:56.714Z,8.33
2023-09-03T20:27:23.211Z,11.00
2023-09-03T20:29:49.792Z,26.50
2023-09-03T20:32:17.212Z,13.67
2023-09-03T20:34:45.604Z,10.80
2023-09-03T20:37:12.027Z,6.00
2023-09-03T20:39:38.463Z,6.33
2023-09-03T20:42:04.907Z,5.00
2023-09-03T20:44:31.385Z,4.67
2023-09-03T20:46:57.813Z,4.33
2023-09-03T20:49:24.234Z,4.00
2023-09-03T20:51:50.660Z,2.67
2023-09-03T20:54:17.928Z,3.00
2023-09-03T20:56:44.369Z,4.00
2023-09-03T20:59:10.780Z,4.00
2023-09-03T21:01:37.270Z,3.00
2023-09-03T21:04:03.710Z,4.00
2023-09-03T21:06:30.179Z,4.00
2023-09-03T21:08:56.625Z,4.00
2023-09-03T21:11:23.070Z,4.00
2023-09-03T21:13:49.502Z,3.00
2023-09-03T21:16:15.941Z,4.33
2023-09-03T21:18:42.363Z,3.00
2023-09-03T21:21:09.631Z,5.00
2023-09-03T21:23:36.079Z,4.33
2023-09-03T21:26:02.530Z,5.00
2023-09-03T21:28:28.954Z,4.00
2023-09-03T21:30:55.377Z,4.00
2023-09-03T21:33:21.789Z,4.00
2023-09-03T21:35:48.298Z,4.00
2023-09-03T21:38:14.777Z,5.00
2023-09-03T21:40:41.231Z,4.33
2023-09-03T21:43:07.699Z,1.00
2023-09-03T21:45:34.160Z,4.33
2023-09-03T21:48:00.649Z,3.00
2023-09-03T21:50:27.122Z,4.00
2023-09-03T21:52:53.519Z,6.00
2023-09-03T21:55:20.822Z,5.75
2023-09-03T21:57:47.290Z,5.00
2023-09-03T22:00:13.731Z,4.00
2023-09-03T22:02:40.369Z,5.00
2023-09-03T22:05:06.998Z,5.00
2023-09-03T22:07:33.382Z,5.00
2023-09-03T22:09:59.818Z,4.00
2023-09-03T22:12:26.251Z,5.33
2023-09-03T22:14:52.664Z,4.00
2023-09-03T22:17:19.947Z,3.50
2023-09-03T22:19:46.348Z,4.00
2023-09-03T22:22:12.759Z,5.00
2023-09-03T22:24:40.053Z,6.00
2023-09-03T22:27:06.502Z,5.67
2023-09-03T22:29:32.941Z,5.00
2023-09-03T22:31:59.376Z,6.00
2023-09-03T22:34:25.830Z,7.00
2023-09-03T22:36:52.370Z,7.00
2023-09-03T22:39:19.840Z,6.00
2023-09-03T22:41:47.346Z,6.00
2023-09-03T22:44:13.780Z,6.00
2023-09-03T22:46:40.214Z,5.00
2023-09-03T22:49:06.660Z,5.00
2023-09-03T22:51:33.091Z,4.33
2023-09-03T22:54:00.369Z,6.25
2023-09-03T22:56:26.797Z,6.00
2023-09-03T22:58:53.223Z,5.67
2023-09-03T23:01:19.692Z,5.00
2023-09-03T23:03:46.173Z,5.00
2023-09-03T23:06:12.687Z,6.50
2023-09-03T23:08:39.103Z,5.00
2023-09-03T23:11:05.539Z,6.00
2023-09-03T23:13:31.955Z,5.00
2023-09-03T23:15:58.702Z,5.00
2023-09-03T23:18:25.374Z,5.67
2023-09-03T23:20:51.847Z,4.67
2023-09-03T23:23:19.135Z,4.00
2023-09-03T23:25:46.199Z,5.00
2023-09-03T23:28:14.595Z,6.00
2023-09-03T23:30:41.053Z,5.00
2023-09-03T23:33:08.362Z,6.75
2023-09-03T23:35:34.792Z,5.00
2023-09-03T23:38:02.105Z,6.50
2023-09-03T23:40:28.532Z,6.00
2023-09-03T23:42:54.993Z,6.00
2023-09-03T23:45:21.409Z,5.67
2023-09-03T23:47:47.862Z,5.33
2023-09-03T23:50:15.160Z,5.00
2023-09-03T23:52:41.567Z,6.00
2023-09-03T23:55:07.971Z,5.00
2023-09-03T23:57:35.234Z,5.75
